Last Tycoon — ZDJZ6 — position and weather

sailwx.info

Track history (hours):
 
Tides and Currents Weather Stations Pressure Air Temp Water Temp Dewpoint Dewpoint Depression Visibility Wind Speed Wind Dir Waves Ship Positions

Last Tycoon

Last reported at 2016-May-08 12:33 UTC. Time now 2016-May-30 12:41 UTC.
Position N 29°45' W 090°01'.
Warning: this ship's position is 22 days out of date.

Length 180 m; draft 6.7 m.

Type: Cargo ship. MMSI: 236607000.

Date/timePositionNaut miles runAvg speedWind from/ knotsBaromVisibWave heightAir tempDewpointWater temp
2016-May-08 12:33N 29°45' W 090°01'1010.1
2016-May-08 11:33N 29°53' W 089°54'9 8.7
2016-May-08 10:33N 29°56' W 090°03'9 8.1
2016-May-08 09:30N 29°57' W 090°13'  
2016-May-04 07:19N 29°58' W 090°14'4 5.7
2016-May-04 06:33N 29°57' W 090°10'5 5.4
2016-May-04 05:33N 29°56' W 090°03'6 6.1
2016-May-04 04:33N 29°55' W 089°57'4 3.5
2016-May-04 03:33N 29°52' W 089°58'2 2.0
2016-May-04 02:34N 29°50' W 089°59'0 0.0
2016-May-04 01:33N 29°50' W 089°59'0 0.0
2016-May-04 00:33N 29°50' W 089°59'0 0.0
2016-May-03 23:28N 29°50' W 089°59'0 0.0
2016-May-03 22:34N 29°50' W 089°59'0 0.0
2016-May-03 21:33N 29°50' W 089°59'0 0.0
2016-May-03 20:27N 29°50' W 089°59'0 0.0
2016-May-03 19:33N 29°50' W 089°59'0 0.0
2016-May-03 18:33N 29°50' W 089°59'0 0.0
2016-May-03 17:33N 29°50' W 089°59'0 0.0
2016-May-03 16:33N 29°50' W 089°59'0 0.0
2016-May-03 15:33N 29°50' W 089°59'0 0.0
2016-May-03 14:33N 29°50' W 089°59'0 0.0
2016-May-03 13:33N 29°50' W 089°59'0 0.0
2016-May-03 12:34N 29°50' W 089°59'0 0.0
2016-May-03 11:33N 29°50' W 089°59'0 0.0
2016-May-03 10:33N 29°50' W 089°59'0 0.0
2016-May-03 09:33N 29°50' W 089°59'0 0.0
2016-May-03 08:33N 29°50' W 089°59'0 0.0
2016-May-03 07:33N 29°50' W 089°59'0 0.0
2016-May-03 06:33N 29°50' W 089°59'0 0.0
2016-May-03 05:33N 29°50' W 089°59'0 0.0
2016-May-03 04:27N 29°50' W 089°59'0 0.0
2016-May-03 03:33N 29°50' W 089°59'0 0.0
2016-May-03 02:33N 29°50' W 089°59'0 0.0
2016-May-03 01:33N 29°50' W 089°59'0 0.0
2016-May-03 00:33N 29°50' W 089°59'0 0.0
2016-May-02 23:33N 29°50' W 089°59'0 0.0
2016-May-02 22:27N 29°50' W 089°59'0 0.0
2016-May-02 21:33N 29°50' W 089°59'0 0.0
2016-May-02 17:21N 29°50' W 089°59'0 0.0
2016-May-02 16:33N 29°50' W 089°59'0 0.0
2016-May-02 15:30N 29°50' W 089°59'0 0.0
2016-May-02 14:33N 29°50' W 089°59'0 0.0
2016-May-02 13:33N 29°50' W 089°59'0 0.0
2016-May-02 12:33N 29°50' W 089°59'0 0.0
2016-May-02 11:33N 29°50' W 089°59'0 0.0
2016-May-02 10:33N 29°50' W 089°59'0 0.0
2016-May-02 09:33N 29°50' W 089°59'0 0.0
2016-May-02 08:33N 29°50' W 089°59'0 0.0
2016-May-02 07:33N 29°50' W 089°59'0 0.0
2016-May-02 06:33N 29°50' W 089°59'0 0.0
2016-May-02 05:27N 29°50' W 089°59'0 0.0
2016-May-02 04:33N 29°50' W 089°59'0 0.0
2016-May-02 03:33N 29°50' W 089°59'0 0.0
2016-May-02 02:30N 29°50' W 089°59'0 0.0
2016-May-02 01:33N 29°50' W 089°59'0 0.0
2016-May-02 00:30N 29°50' W 089°59'0 0.0
2016-May-01 23:33N 29°50' W 089°59'0 0.0
2016-May-01 22:33N 29°50' W 089°59'0 0.0
2016-May-01 21:33N 29°50' W 089°59'2 2.2
2016-May-01 20:33N 29°52' W 089°59'4 3.6
2016-May-01 19:33N 29°55' W 089°56'0 0.0
2016-May-01 18:30N 29°55' W 089°56'0 0.0
2016-May-01 17:33N 29°55' W 089°56'0 0.0
2016-May-01 15:33N 29°55' W 089°56'0 0.0
2016-May-01 14:33N 29°55' W 089°56'0 0.0
2016-May-01 11:27N 29°55' W 089°56'0 0.0
2016-May-01 10:15N 29°55' W 089°56'0 0.0
2016-May-01 09:27N 29°55' W 089°56'0 0.0
2016-May-01 08:33N 29°55' W 089°56'0 0.0
2016-May-01 07:33N 29°55' W 089°56'0 0.0
2016-May-01 06:33N 29°55' W 089°56'0 0.0
2016-May-01 05:27N 29°55' W 089°56'0 0.0
2016-May-01 04:33N 29°55' W 089°56'0 0.0
2016-May-01 03:33N 29°55' W 089°56'0 0.0
2016-May-01 02:21N 29°55' W 089°56'0 0.0
2016-May-01 01:33N 29°55' W 089°56'0 0.0
2016-May-01 00:30N 29°55' W 089°56'0 0.0
2016-Apr-30 23:33N 29°55' W 089°56'0 0.0
2016-Apr-30 22:30N 29°55' W 089°56'0 0.0
2016-Apr-30 21:27N 29°55' W 089°56'0 0.0
2016-Apr-30 20:33N 29°55' W 089°56'0 0.0
2016-Apr-30 19:33N 29°55' W 089°56'0 0.0
2016-Apr-30 18:27N 29°55' W 089°56'0 0.0
2016-Apr-30 17:33N 29°55' W 089°56'0 0.0
2016-Apr-30 15:33N 29°55' W 089°56'0 0.0
2016-Apr-30 14:30N 29°55' W 089°56'0 0.0
2016-Apr-30 13:33N 29°55' W 089°56'0 0.0
2016-Apr-30 12:33N 29°55' W 089°56'0 0.0
2016-Apr-30 11:33N 29°55' W 089°56'0 0.0
2016-Apr-30 10:33N 29°55' W 089°56'0 0.0
2016-Apr-30 09:27N 29°55' W 089°56'0 0.0
2016-Apr-30 08:33N 29°55' W 089°56'0 0.0
2016-Apr-30 07:33N 29°55' W 089°56'0 0.0
2016-Apr-30 06:21N 29°55' W 089°56'0 0.0
2016-Apr-30 05:20N 29°55' W 089°56'0 0.0
2016-Apr-30 04:33N 29°55' W 089°56'0 0.0
2016-Apr-30 03:26N 29°55' W 089°56'0 0.0
2016-Apr-30 02:32N 29°55' W 089°56'0 0.0
2016-Apr-30 01:32N 29°55' W 089°56'0 0.0
2016-Apr-29 23:09N 29°55' W 089°56'0 0.0
2016-Apr-29 22:20N 29°55' W 089°56'0 0.0
2016-Apr-29 21:32N 29°55' W 089°56'0 0.0
2016-Apr-29 18:17N 29°55' W 089°56'0 0.0
2016-Apr-29 17:32N 29°55' W 089°56'0 0.0
2016-Apr-29 16:32N 29°55' W 089°56'0 0.0
2016-Apr-29 14:32N 29°55' W 089°56'0 0.0
2016-Apr-29 12:20N 29°55' W 089°56'0 0.0
2016-Apr-29 11:26N 29°55' W 089°56'0 0.0
2016-Apr-29 10:26N 29°55' W 089°56'0 0.0
2016-Apr-29 09:32N 29°55' W 089°56'0 0.0
2016-Apr-29 08:26N 29°55' W 089°56'0 0.0
2016-Apr-29 07:20N 29°55' W 089°56'0 0.0
2016-Apr-29 06:32N 29°55' W 089°56'0 0.0
2016-Apr-29 05:26N 29°55' W 089°56'0 0.0
2016-Apr-29 03:20N 29°55' W 089°56'0 0.0
2016-Apr-29 02:32N 29°55' W 089°56'0 0.0
2016-Apr-29 01:32N 29°55' W 089°56'0 0.0
2016-Apr-29 00:32N 29°55' W 089°56'0 0.0
2016-Apr-28 23:14N 29°55' W 089°56'0 0.0
2016-Apr-28 22:32N 29°55' W 089°56'0 0.0
2016-Apr-28 21:23N 29°55' W 089°56'0 0.0
2016-Apr-28 20:32N 29°55' W 089°56'0 0.0
2016-Apr-28 19:32N 29°55' W 089°56'0 0.0
2016-Apr-28 18:32N 29°55' W 089°56'0 0.0
2016-Apr-28 17:32N 29°55' W 089°56'0 0.0
2016-Apr-28 16:32N 29°55' W 089°56'0 0.0
2016-Apr-28 15:32N 29°55' W 089°56'0 0.0
2016-Apr-28 14:32N 29°55' W 089°56'0 0.0
2016-Apr-28 13:26N 29°55' W 089°56'  
Track history (hours):
 
Tides and Currents Weather Stations Pressure Air Temp Water Temp Dewpoint Dewpoint Depression Visibility Wind Speed Wind Dir Waves Ship Positions

Last Tycoon

Last reported at 2016-May-08 12:33 UTC. Time now 2016-May-30 12:41 UTC.
Position N 29°45' W 090°01'.
Warning: this ship's position is 22 days out of date.

Length 180 m; draft 6.7 m.

Type: Cargo ship. MMSI: 236607000.

Date/timePositionNaut miles runAvg speedWind from/ knotsBaromVisibWave heightAir tempDewpointWater temp
2016-May-08 12:33N 29°45' W 090°01'1010.1
2016-May-08 11:33N 29°53' W 089°54'9 8.7
2016-May-08 10:33N 29°56' W 090°03'9 8.1
2016-May-08 09:30N 29°57' W 090°13'  
2016-May-04 07:19N 29°58' W 090°14'4 5.7
2016-May-04 06:33N 29°57' W 090°10'5 5.4
2016-May-04 05:33N 29°56' W 090°03'6 6.1
2016-May-04 04:33N 29°55' W 089°57'4 3.5
2016-May-04 03:33N 29°52' W 089°58'2 2.0
2016-May-04 02:34N 29°50' W 089°59'0 0.0
2016-May-04 01:33N 29°50' W 089°59'0 0.0
2016-May-04 00:33N 29°50' W 089°59'0 0.0
2016-May-03 23:28N 29°50' W 089°59'0 0.0
2016-May-03 22:34N 29°50' W 089°59'0 0.0
2016-May-03 21:33N 29°50' W 089°59'0 0.0
2016-May-03 20:27N 29°50' W 089°59'0 0.0
2016-May-03 19:33N 29°50' W 089°59'0 0.0
2016-May-03 18:33N 29°50' W 089°59'0 0.0
2016-May-03 17:33N 29°50' W 089°59'0 0.0
2016-May-03 16:33N 29°50' W 089°59'0 0.0
2016-May-03 15:33N 29°50' W 089°59'0 0.0
2016-May-03 14:33N 29°50' W 089°59'0 0.0
2016-May-03 13:33N 29°50' W 089°59'0 0.0
2016-May-03 12:34N 29°50' W 089°59'0 0.0
2016-May-03 11:33N 29°50' W 089°59'0 0.0
2016-May-03 10:33N 29°50' W 089°59'0 0.0
2016-May-03 09:33N 29°50' W 089°59'0 0.0
2016-May-03 08:33N 29°50' W 089°59'0 0.0
2016-May-03 07:33N 29°50' W 089°59'0 0.0
2016-May-03 06:33N 29°50' W 089°59'0 0.0
2016-May-03 05:33N 29°50' W 089°59'0 0.0
2016-May-03 04:27N 29°50' W 089°59'0 0.0
2016-May-03 03:33N 29°50' W 089°59'0 0.0
2016-May-03 02:33N 29°50' W 089°59'0 0.0
2016-May-03 01:33N 29°50' W 089°59'0 0.0
2016-May-03 00:33N 29°50' W 089°59'0 0.0
2016-May-02 23:33N 29°50' W 089°59'0 0.0
2016-May-02 22:27N 29°50' W 089°59'0 0.0
2016-May-02 21:33N 29°50' W 089°59'0 0.0
2016-May-02 17:21N 29°50' W 089°59'0 0.0
2016-May-02 16:33N 29°50' W 089°59'0 0.0
2016-May-02 15:30N 29°50' W 089°59'0 0.0
2016-May-02 14:33N 29°50' W 089°59'0 0.0
2016-May-02 13:33N 29°50' W 089°59'0 0.0
2016-May-02 12:33N 29°50' W 089°59'0 0.0
2016-May-02 11:33N 29°50' W 089°59'0 0.0
2016-May-02 10:33N 29°50' W 089°59'0 0.0
2016-May-02 09:33N 29°50' W 089°59'0 0.0
2016-May-02 08:33N 29°50' W 089°59'0 0.0
2016-May-02 07:33N 29°50' W 089°59'0 0.0
2016-May-02 06:33N 29°50' W 089°59'0 0.0
2016-May-02 05:27N 29°50' W 089°59'0 0.0
2016-May-02 04:33N 29°50' W 089°59'0 0.0
2016-May-02 03:33N 29°50' W 089°59'0 0.0
2016-May-02 02:30N 29°50' W 089°59'0 0.0
2016-May-02 01:33N 29°50' W 089°59'0 0.0
2016-May-02 00:30N 29°50' W 089°59'0 0.0
2016-May-01 23:33N 29°50' W 089°59'0 0.0
2016-May-01 22:33N 29°50' W 089°59'0 0.0
2016-May-01 21:33N 29°50' W 089°59'2 2.2
2016-May-01 20:33N 29°52' W 089°59'4 3.6
2016-May-01 19:33N 29°55' W 089°56'0 0.0
2016-May-01 18:30N 29°55' W 089°56'0 0.0
2016-May-01 17:33N 29°55' W 089°56'0 0.0
2016-May-01 15:33N 29°55' W 089°56'0 0.0
2016-May-01 14:33N 29°55' W 089°56'0 0.0
2016-May-01 11:27N 29°55' W 089°56'0 0.0
2016-May-01 10:15N 29°55' W 089°56'0 0.0
2016-May-01 09:27N 29°55' W 089°56'0 0.0
2016-May-01 08:33N 29°55' W 089°56'0 0.0
2016-May-01 07:33N 29°55' W 089°56'0 0.0
2016-May-01 06:33N 29°55' W 089°56'0 0.0
2016-May-01 05:27N 29°55' W 089°56'0 0.0
2016-May-01 04:33N 29°55' W 089°56'0 0.0
2016-May-01 03:33N 29°55' W 089°56'0 0.0
2016-May-01 02:21N 29°55' W 089°56'0 0.0
2016-May-01 01:33N 29°55' W 089°56'0 0.0
2016-May-01 00:30N 29°55' W 089°56'0 0.0
2016-Apr-30 23:33N 29°55' W 089°56'0 0.0
2016-Apr-30 22:30N 29°55' W 089°56'0 0.0
2016-Apr-30 21:27N 29°55' W 089°56'0 0.0
2016-Apr-30 20:33N 29°55' W 089°56'0 0.0
2016-Apr-30 19:33N 29°55' W 089°56'0 0.0
2016-Apr-30 18:27N 29°55' W 089°56'0 0.0
2016-Apr-30 17:33N 29°55' W 089°56'0 0.0
2016-Apr-30 15:33N 29°55' W 089°56'0 0.0
2016-Apr-30 14:30N 29°55' W 089°56'0 0.0
2016-Apr-30 13:33N 29°55' W 089°56'0 0.0
2016-Apr-30 12:33N 29°55' W 089°56'0 0.0
2016-Apr-30 11:33N 29°55' W 089°56'0 0.0
2016-Apr-30 10:33N 29°55' W 089°56'0 0.0
2016-Apr-30 09:27N 29°55' W 089°56'0 0.0
2016-Apr-30 08:33N 29°55' W 089°56'0 0.0
2016-Apr-30 07:33N 29°55' W 089°56'0 0.0
2016-Apr-30 06:21N 29°55' W 089°56'0 0.0
2016-Apr-30 05:20N 29°55' W 089°56'0 0.0
2016-Apr-30 04:33N 29°55' W 089°56'0 0.0
2016-Apr-30 03:26N 29°55' W 089°56'0 0.0
2016-Apr-30 02:32N 29°55' W 089°56'0 0.0
2016-Apr-30 01:32N 29°55' W 089°56'0 0.0
2016-Apr-29 23:09N 29°55' W 089°56'0 0.0
2016-Apr-29 22:20N 29°55' W 089°56'0 0.0
2016-Apr-29 21:32N 29°55' W 089°56'0 0.0
2016-Apr-29 18:17N 29°55' W 089°56'0 0.0
2016-Apr-29 17:32N 29°55' W 089°56'0 0.0
2016-Apr-29 16:32N 29°55' W 089°56'0 0.0
2016-Apr-29 14:32N 29°55' W 089°56'0 0.0
2016-Apr-29 12:20N 29°55' W 089°56'0 0.0
2016-Apr-29 11:26N 29°55' W 089°56'0 0.0
2016-Apr-29 10:26N 29°55' W 089°56'0 0.0
2016-Apr-29 09:32N 29°55' W 089°56'0 0.0
2016-Apr-29 08:26N 29°55' W 089°56'0 0.0
2016-Apr-29 07:20N 29°55' W 089°56'0 0.0
2016-Apr-29 06:32N 29°55' W 089°56'0 0.0
2016-Apr-29 05:26N 29°55' W 089°56'0 0.0
2016-Apr-29 03:20N 29°55' W 089°56'0 0.0
2016-Apr-29 02:32N 29°55' W 089°56'0 0.0
2016-Apr-29 01:32N 29°55' W 089°56'0 0.0
2016-Apr-29 00:32N 29°55' W 089°56'0 0.0
2016-Apr-28 23:14N 29°55' W 089°56'0 0.0
2016-Apr-28 22:32N 29°55' W 089°56'0 0.0
2016-Apr-28 21:23N 29°55' W 089°56'0 0.0
2016-Apr-28 20:32N 29°55' W 089°56'0 0.0
2016-Apr-28 19:32N 29°55' W 089°56'0 0.0
2016-Apr-28 18:32N 29°55' W 089°56'0 0.0
2016-Apr-28 17:32N 29°55' W 089°56'0 0.0
2016-Apr-28 16:32N 29°55' W 089°56'0 0.0
2016-Apr-28 15:32N 29°55' W 089°56'0 0.0
2016-Apr-28 14:32N 29°55' W 089°56'0 0.0
2016-Apr-28 13:26N 29°55' W 089°56'  

Dump ship's entire track history